createdAt,value
2019-04-11T00:02:57.885Z,5.87
2019-04-11T00:05:28.404Z,9.03
2019-04-11T00:07:59.665Z,6.43
2019-04-11T00:10:29.482Z,8.50
2019-04-11T00:12:59.203Z,7.47
2019-04-11T00:15:28.884Z,7.10
2019-04-11T00:17:58.629Z,9.10
2019-04-11T00:20:28.459Z,8.03
2019-04-11T00:22:58.135Z,9.27
2019-04-11T00:25:27.792Z,9.07
2019-04-11T00:27:57.474Z,6.83
2019-04-11T00:30:27.979Z,9.13
2019-04-11T00:32:58.057Z,7.73
2019-04-11T00:35:27.947Z,7.73
2019-04-11T00:37:57.665Z,7.73
2019-04-11T00:40:27.234Z,8.43
2019-04-11T00:42:56.903Z,7.37
2019-04-11T00:45:27.472Z,9.90
2019-04-11T00:47:57.537Z,7.60
2019-04-11T00:50:27.372Z,8.40
2019-04-11T00:52:58.102Z,7.43
2019-04-11T00:55:27.677Z,5.57
2019-04-11T00:57:57.221Z,8.77
2019-04-11T01:00:27.059Z,10.70
2019-04-11T01:02:57.863Z,6.87
2019-04-11T01:05:27.660Z,8.77
2019-04-11T01:07:57.748Z,8.37
2019-04-11T01:10:27.419Z,6.23
2019-04-11T01:12:58.614Z,11.57
2019-04-11T01:15:29.174Z,8.77
2019-04-11T01:17:58.782Z,8.97
2019-04-11T01:20:29.244Z,6.10
2019-04-11T01:22:58.908Z,8.57
2019-04-11T01:25:28.532Z,9.10
2019-04-11T01:27:58.470Z,8.03
2019-04-11T01:30:36.652Z,10.13
2019-04-11T01:33:06.675Z,9.37
2019-04-11T01:35:37.300Z,7.87
2019-04-11T01:38:06.899Z,6.20
2019-04-11T01:40:36.459Z,11.13
2019-04-11T01:43:06.069Z,8.83
2019-04-11T01:45:35.839Z,7.03
2019-04-11T01:48:22.348Z,7.37
2019-04-11T01:50:51.932Z,9.43
2019-04-11T01:53:22.579Z,5.40
2019-04-11T01:55:52.558Z,7.63
2019-04-11T01:58:22.530Z,6.47
2019-04-11T02:01:04.163Z,7.70
2019-04-11T02:03:41.702Z,6.67
2019-04-11T02:06:11.839Z,6.70
2019-04-11T02:08:41.752Z,9.23
2019-04-11T02:11:11.418Z,7.13
2019-04-11T02:13:41.804Z,7.13
2019-04-11T02:16:12.560Z,5.07
2019-04-11T02:18:42.331Z,7.10
2019-04-11T02:21:11.903Z,7.43
2019-04-11T02:24:01.558Z,7.07
2019-04-11T02:26:33.631Z,9.17
2019-04-11T02:29:03.466Z,7.87
2019-04-11T02:31:34.791Z,6.80
2019-04-11T02:34:05.923Z,6.77
2019-04-11T02:36:37.825Z,7.13
2019-04-11T02:39:14.530Z,9.67
2019-04-11T02:41:42.055Z,7.90
2019-04-11T02:44:29.026Z,13.57
2019-04-11T02:46:53.223Z,7.10
2019-04-11T02:49:14.980Z,6.83
2019-04-11T02:51:45.131Z,8.00
2019-04-11T02:54:15.930Z,6.67
2019-04-11T02:56:48.755Z,7.87
2019-04-11T02:59:17.773Z,6.80
2019-04-11T03:01:48.686Z,9.83
2019-04-11T03:04:20.305Z,7.87
2019-04-11T03:06:51.844Z,14.97
2019-04-11T03:09:22.158Z,186.67
2019-04-11T03:11:54.464Z,151.90
2019-04-11T03:14:25.148Z,63.47
2019-04-11T03:17:02.502Z,27.07
2019-04-11T03:19:42.376Z,9.13
2019-04-11T03:21:59.386Z,8.40
2019-04-11T03:24:30.851Z,10.10
2019-04-11T03:27:04.141Z,6.70
2019-04-11T03:29:33.315Z,7.83
2019-04-11T03:32:37.201Z,10.13
2019-04-11T03:37:27.354Z,7.93
2019-04-11T03:39:57.429Z,4.60
2019-04-11T03:42:21.663Z,6.23
2019-04-11T03:44:47.110Z,7.03
2019-04-11T03:47:30.531Z,6.83
2019-04-11T03:49:51.005Z,5.73
2019-04-11T03:52:17.191Z,8.40
2019-04-11T03:54:47.542Z,7.03
2019-04-11T03:57:18.069Z,8.37
2019-04-11T03:59:48.080Z,7.67
2019-04-11T04:02:17.694Z,7.03
2019-04-11T04:04:49.388Z,7.20
2019-04-11T04:07:19.366Z,7.67
2019-04-11T04:09:51.051Z,7.03
2019-04-11T04:12:21.000Z,6.50
2019-04-11T04:15:01.387Z,5.57
2019-04-11T04:17:49.724Z,3.93
2019-04-11T04:20:42.120Z,4.80
2019-04-11T04:23:38.037Z,5.53
2019-04-11T04:26:10.569Z,6.07
2019-04-11T04:28:40.872Z,4.97
2019-04-11T04:31:11.509Z,4.50
2019-04-11T04:33:42.828Z,4.77
2019-04-11T04:36:13.866Z,5.27
2019-04-11T04:38:44.504Z,5.13
2019-04-11T04:41:28.272Z,5.03
2019-04-11T04:43:48.298Z,5.60
2019-04-11T04:46:34.828Z,5.77
2019-04-11T04:48:51.333Z,6.47
2019-04-11T04:51:23.800Z,7.63
2019-04-11T04:53:52.097Z,8.03
2019-04-11T04:56:26.037Z,7.90
2019-04-11T04:58:54.105Z,6.23
2019-04-11T05:01:24.004Z,4.63
2019-04-11T05:03:54.172Z,4.20
2019-04-11T05:06:24.223Z,5.57
2019-04-11T05:08:53.944Z,4.37
2019-04-11T05:11:23.526Z,4.63
2019-04-11T05:13:54.317Z,5.30
2019-04-11T05:16:24.310Z,4.80
2019-04-11T05:18:54.762Z,5.40
2019-04-11T05:21:25.422Z,4.53
2019-04-11T05:23:58.569Z,6.17
2019-04-11T05:26:28.313Z,5.63
2019-04-11T05:28:58.064Z,4.07
2019-04-11T05:31:27.777Z,3.90
2019-04-11T05:33:57.454Z,3.23
2019-04-11T05:36:28.216Z,6.90
2019-04-11T05:38:58.244Z,5.37
2019-04-11T05:41:27.908Z,5.33
2019-04-11T05:44:01.891Z,4.87
2019-04-11T05:46:35.356Z,5.50
2019-04-11T05:49:14.218Z,4.47
2019-04-11T05:51:57.973Z,5.03
2019-04-11T05:54:28.107Z,3.73
2019-04-11T05:57:01.107Z,4.27
2019-04-11T05:59:30.865Z,4.27
2019-04-11T06:02:07.716Z,5.07
2019-04-11T06:04:42.534Z,4.93
2019-04-11T06:07:35.027Z,4.87
2019-04-11T06:10:11.365Z,4.00
2019-04-11T06:12:59.015Z,7.37
2019-04-11T06:15:33.282Z,7.93
2019-04-11T06:18:07.030Z,5.53
2019-04-11T06:20:45.207Z,9.47
2019-04-11T06:23:32.935Z,6.93
2019-04-11T06:26:22.908Z,9.03
2019-04-11T06:28:55.877Z,5.17
2019-04-11T06:31:52.610Z,5.43
2019-04-11T06:34:24.127Z,6.40
2019-04-11T06:37:12.309Z,6.87
2019-04-11T06:39:57.731Z,6.77
2019-04-11T06:42:51.700Z,4.33
2019-04-11T06:45:58.889Z,8.40
2019-04-11T06:48:50.225Z,4.93
2019-04-11T06:51:30.720Z,5.80
2019-04-11T06:54:19.264Z,5.67
2019-04-11T06:56:51.033Z,5.77
2019-04-11T06:59:30.807Z,5.17
2019-04-11T07:02:11.500Z,5.53
2019-04-11T07:04:39.938Z,5.33
2019-04-11T07:07:12.801Z,4.10
2019-04-11T07:10:13.788Z,4.53
2019-04-11T07:12:55.996Z,5.23
2019-04-11T07:15:29.373Z,5.43
2019-04-11T07:18:16.820Z,5.27
2019-04-11T07:21:04.074Z,4.67
2019-04-11T07:23:51.708Z,4.23
2019-04-11T07:26:25.091Z,4.13
2019-04-11T07:29:17.343Z,4.90
2019-04-11T07:32:00.892Z,5.43
2019-04-11T07:34:52.730Z,8.53
2019-04-11T07:37:36.784Z,3.37
2019-04-11T07:40:29.218Z,4.67
2019-04-11T07:43:18.507Z,2.87
2019-04-11T07:46:06.895Z,3.30
2019-04-11T07:48:45.304Z,4.67
2019-04-11T07:51:34.379Z,4.23
2019-04-11T07:54:07.280Z,3.40
2019-04-11T07:56:41.912Z,2.87
2019-04-11T07:59:20.012Z,4.10
2019-04-11T08:02:18.158Z,3.43
2019-04-11T08:05:06.604Z,2.53
2019-04-11T08:07:59.453Z,3.10
2019-04-11T08:10:35.110Z,2.93
2019-04-11T08:13:10.199Z,4.70
2019-04-11T08:16:02.204Z,4.13
2019-04-11T08:18:41.125Z,4.33
2019-04-11T08:21:28.442Z,3.20
2019-04-11T08:24:00.308Z,2.60
2019-04-11T08:26:48.423Z,3.10
2019-04-11T08:29:20.126Z,2.60
2019-04-11T08:32:18.169Z,2.33
2019-04-11T08:34:56.572Z,3.03
2019-04-11T08:37:43.804Z,2.30
2019-04-11T08:40:13.561Z,1.80
2019-04-11T08:43:05.220Z,2.27
2019-04-11T08:45:38.127Z,2.63
2019-04-11T08:48:08.839Z,1.83
2019-04-11T08:50:42.613Z,2.13
2019-04-11T08:53:30.885Z,3.33
2019-04-11T08:56:03.702Z,2.80
2019-04-11T08:58:45.482Z,2.30
2019-04-11T09:01:16.554Z,2.33
2019-04-11T09:04:07.943Z,3.33
2019-04-11T09:06:38.972Z,2.23
2019-04-11T09:09:38.064Z,2.33
2019-04-11T09:12:10.708Z,2.10
2019-04-11T09:15:14.792Z,3.70
2019-04-11T09:18:01.851Z,2.60
2019-04-11T09:27:44.885Z,4.80
2019-04-11T09:30:30.516Z,2.60
2019-04-11T09:44:22.498Z,3.57
2019-04-11T09:50:45.336Z,3.37
2019-04-11T09:53:16.264Z,2.30
2019-04-11T09:56:08.707Z,3.00
2019-04-11T09:58:38.636Z,2.67
2019-04-11T10:01:40.559Z,3.87
2019-04-11T10:04:10.916Z,2.27
2019-04-11T10:07:05.742Z,6.93
2019-04-11T10:09:55.414Z,2.77
2019-04-11T10:12:44.510Z,3.97
2019-04-11T10:15:16.159Z,2.07
2019-04-11T10:18:23.002Z,1.77
2019-04-11T10:24:40.772Z,1.37
2019-04-11T10:28:22.035Z,1.50
2019-04-11T10:39:11.704Z,1.40
2019-04-11T10:49:21.986Z,2.60
2019-04-11T10:53:15.027Z,1.80
2019-04-11T10:59:13.758Z,2.23
2019-04-11T11:02:04.505Z,1.23
2019-04-11T11:04:40.995Z,1.40
2019-04-11T11:20:55.108Z,1.20
2019-04-11T11:23:38.802Z,2.53
2019-04-11T11:26:22.717Z,1.20
2019-04-11T11:29:20.548Z,1.37
2019-04-11T11:32:16.705Z,1.27
2019-04-11T11:35:12.833Z,1.87
2019-04-11T11:44:13.855Z,1.40
2019-04-11T11:50:21.611Z,1.40
2019-04-11T11:56:34.845Z,1.60
2019-04-11T11:59:25.650Z,2.03
2019-04-11T12:02:08.413Z,1.50
2019-04-11T12:04:58.757Z,1.47
2019-04-11T12:07:49.323Z,3.20
2019-04-11T12:10:29.131Z,1.33
2019-04-11T12:13:19.151Z,1.47
2019-04-11T12:16:06.421Z,1.40
2019-04-11T12:18:54.919Z,1.33
2019-04-11T12:21:28.514Z,1.50
2019-04-11T12:24:30.101Z,1.20
2019-04-11T12:27:16.278Z,1.10
2019-04-11T12:30:09.535Z,1.50
2019-04-11T12:32:51.087Z,2.30
2019-04-11T12:35:52.692Z,1.53
2019-04-11T12:38:41.461Z,1.87
2019-04-11T12:41:35.950Z,1.40
2019-04-11T12:44:26.736Z,1.80
2019-04-11T12:47:20.851Z,1.60
2019-04-11T13:11:47.457Z,2.27
2019-04-11T13:14:38.207Z,2.10
2019-04-11T13:17:11.630Z,2.10
2019-04-11T13:20:04.515Z,1.77
2019-04-11T13:22:30.440Z,2.43
2019-04-11T13:29:27.380Z,3.77
2019-04-11T13:32:16.646Z,2.67
2019-04-11T13:38:27.000Z,2.47
2019-04-11T13:41:13.721Z,3.97
2019-04-11T13:44:02.211Z,2.80
2019-04-11T13:46:50.838Z,2.73
2019-04-11T13:49:39.407Z,2.33
2019-04-11T13:52:30.947Z,2.60
2019-04-11T14:02:51.102Z,1.93
2019-04-11T14:05:15.473Z,2.50
2019-04-11T14:15:17.577Z,3.57
2019-04-11T14:18:12.266Z,1.83
2019-04-11T14:20:44.968Z,2.13
2019-04-11T14:23:33.473Z,3.07
2019-04-11T14:26:10.327Z,2.60
2019-04-11T14:28:52.640Z,2.30
2019-04-11T14:31:59.376Z,2.43
2019-04-11T14:34:46.416Z,5.83
2019-04-11T14:37:38.089Z,2.10
2019-04-11T14:44:36.117Z,1.57
2019-04-11T14:47:25.047Z,1.83
2019-04-11T14:50:00.495Z,2.63
2019-04-11T14:52:49.048Z,4.13
2019-04-11T14:55:19.734Z,2.13
2019-04-11T15:02:27.998Z,1.83
2019-04-11T15:05:06.980Z,2.33
2019-04-11T15:07:37.459Z,2.67
2019-04-11T15:10:36.030Z,2.57
2019-04-11T15:13:06.370Z,2.43
2019-04-11T15:15:41.576Z,2.67
2019-04-11T15:18:11.211Z,2.70
2019-04-11T15:21:08.749Z,3.57
2019-04-11T15:23:44.099Z,5.57
2019-04-11T15:26:29.750Z,2.83
2019-04-11T15:29:14.698Z,2.77
2019-04-11T15:32:06.328Z,2.77
2019-04-11T15:34:41.009Z,2.50
2019-04-11T15:37:47.882Z,3.10
2019-04-11T15:40:38.921Z,3.53
2019-04-11T15:43:36.104Z,2.97
2019-04-11T15:46:23.415Z,4.30
2019-04-11T15:49:20.870Z,2.90
2019-04-11T15:51:55.946Z,2.90
2019-04-11T15:54:44.519Z,2.60
2019-04-11T15:57:44.993Z,3.87
2019-04-11T16:00:36.766Z,2.20
2019-04-11T16:03:18.375Z,2.73
2019-04-11T16:06:05.792Z,2.70
2019-04-11T16:08:43.691Z,4.43
2019-04-11T16:11:32.535Z,4.33
2019-04-11T16:14:24.042Z,3.47
2019-04-11T16:17:13.751Z,5.30
2019-04-11T16:19:50.501Z,4.20
2019-04-11T16:22:38.898Z,2.57
2019-04-11T16:25:29.221Z,5.03
2019-04-11T16:28:15.835Z,3.17
2019-04-11T16:30:50.293Z,3.03
2019-04-11T16:33:51.150Z,4.37
2019-04-11T16:36:51.654Z,12.57
2019-04-11T16:39:50.305Z,7.33
2019-04-11T16:42:39.381Z,19.93
2019-04-11T16:45:34.402Z,10.40
2019-04-11T16:48:03.030Z,4.47
2019-04-11T16:50:32.786Z,3.20
2019-04-11T16:53:02.507Z,7.57
2019-04-11T16:55:32.072Z,3.33
2019-04-11T16:58:01.706Z,6.07
2019-04-11T17:00:31.487Z,2.93
2019-04-11T17:03:01.123Z,2.60
2019-04-11T17:05:30.683Z,3.50
2019-04-11T17:08:34.898Z,2.87
2019-04-11T17:11:30.943Z,3.00
2019-04-11T17:14:04.989Z,3.17
2019-04-11T17:16:34.609Z,3.00
2019-04-11T17:19:05.453Z,3.43
2019-04-11T17:21:43.022Z,2.90
2019-04-11T17:24:06.765Z,3.83
2019-04-11T17:26:36.474Z,4.17
2019-04-11T17:29:06.097Z,2.13
2019-04-11T17:31:38.473Z,2.47
2019-04-11T17:34:08.136Z,4.93
2019-04-11T17:36:37.671Z,2.10
2019-04-11T17:39:07.941Z,3.83
2019-04-11T17:41:41.609Z,2.17
2019-04-11T17:44:08.937Z,3.33
2019-04-11T17:46:38.771Z,3.97
2019-04-11T17:49:08.366Z,2.43
2019-04-11T17:51:37.964Z,3.77
2019-04-11T17:54:07.628Z,2.00
2019-04-11T17:56:37.186Z,2.43
2019-04-11T17:59:06.796Z,2.10
2019-04-11T18:01:38.084Z,2.43
2019-04-11T18:04:08.776Z,5.57
2019-04-11T18:06:38.581Z,2.93
2019-04-11T18:09:11.934Z,2.03
2019-04-11T18:11:41.626Z,2.13
2019-04-11T18:14:11.192Z,2.77
2019-04-11T18:16:40.790Z,1.87
2019-04-11T18:19:10.445Z,1.93
2019-04-11T18:21:40.368Z,1.90
2019-04-11T18:24:10.229Z,2.47
2019-04-11T18:26:39.838Z,3.23
2019-04-11T18:29:09.430Z,1.40
2019-04-11T18:31:39.162Z,1.77
2019-04-11T18:34:08.780Z,1.70
2019-04-11T18:36:38.373Z,1.60
2019-04-11T18:39:08.689Z,1.87
2019-04-11T18:41:39.497Z,2.53
2019-04-11T18:44:09.894Z,3.23
2019-04-11T18:46:41.216Z,2.20
2019-04-11T18:49:11.113Z,1.73
2019-04-11T18:51:42.611Z,1.73
2019-04-11T18:54:13.615Z,2.47
2019-04-11T18:56:43.493Z,3.37
2019-04-11T18:59:13.084Z,1.70
2019-04-11T19:01:44.115Z,3.43
2019-04-11T19:04:14.089Z,2.60
2019-04-11T19:06:44.090Z,2.27
2019-04-11T19:09:16.796Z,4.37
2019-04-11T19:11:51.428Z,2.87
2019-04-11T19:14:20.645Z,5.03
2019-04-11T19:16:50.270Z,6.10
2019-04-11T19:19:19.865Z,4.87
2019-04-11T19:21:51.086Z,4.53
2019-04-11T19:24:21.279Z,6.60
2019-04-11T19:26:50.905Z,4.87
2019-04-11T19:29:24.779Z,6.60
2019-04-11T19:31:52.274Z,7.23
2019-04-11T19:34:22.576Z,7.03
2019-04-11T19:36:52.228Z,7.90
2019-04-11T19:39:23.379Z,4.80
2019-04-11T19:41:53.249Z,8.40
2019-04-11T19:44:22.808Z,8.03
2019-04-11T19:46:52.870Z,6.30
2019-04-11T19:49:22.470Z,10.53
2019-04-11T19:51:52.091Z,6.70
2019-04-11T19:54:21.690Z,7.00
2019-04-11T19:57:05.432Z,6.23
2019-04-11T19:59:35.078Z,8.83
2019-04-11T20:02:04.705Z,7.83
2019-04-11T20:04:34.322Z,7.30
2019-04-11T20:07:05.082Z,6.87
2019-04-11T20:09:34.690Z,9.03
2019-04-11T20:12:06.304Z,10.40
2019-04-11T20:14:35.890Z,8.67
2019-04-11T20:17:05.526Z,10.03
2019-04-11T20:19:35.420Z,6.63
2019-04-11T20:22:08.385Z,7.40
2019-04-11T20:24:36.266Z,7.47
2019-04-11T20:27:05.886Z,8.00
2019-04-11T20:29:35.459Z,8.13
2019-04-11T20:32:05.114Z,6.07
2019-04-11T20:34:38.030Z,7.80
2019-04-11T20:37:06.257Z,8.40
2019-04-11T20:39:36.001Z,11.67
2019-04-11T20:42:05.630Z,7.23
2019-04-11T20:44:35.219Z,8.87
2019-04-11T20:47:04.893Z,9.77
2019-04-11T20:49:36.043Z,7.30
2019-04-11T20:52:05.646Z,6.50
2019-04-11T20:54:35.979Z,7.43
2019-04-11T20:57:06.451Z,7.17
2019-04-11T20:59:41.369Z,7.87
2019-04-11T21:02:07.393Z,8.57
2019-04-11T21:04:37.045Z,6.70
2019-04-11T21:07:06.657Z,6.20
2019-04-11T21:09:36.218Z,7.37
2019-04-11T21:12:07.490Z,6.50
2019-04-11T21:14:37.037Z,9.73
2019-04-11T21:17:07.132Z,7.70
2019-04-11T21:19:36.706Z,6.93
2019-04-11T21:22:06.358Z,7.43
2019-04-11T21:24:35.965Z,9.40
2019-04-11T21:27:05.562Z,7.37
2019-04-11T21:29:35.176Z,7.47
2019-04-11T21:32:04.748Z,7.83
2019-04-11T21:34:34.326Z,7.10
2019-04-11T21:37:04.189Z,8.07
2019-04-11T21:39:33.796Z,7.53
2019-04-11T21:42:06.155Z,7.17
2019-04-11T21:44:36.821Z,10.40
2019-04-11T21:47:07.337Z,8.33
2019-04-11T21:49:37.777Z,6.03
2019-04-11T21:52:07.448Z,9.60
2019-04-11T21:54:37.032Z,9.17
2019-04-11T21:57:06.656Z,9.23
2019-04-11T21:59:36.254Z,10.37
2019-04-11T22:02:07.953Z,7.67
2019-04-11T22:04:37.655Z,9.90
2019-04-11T22:07:07.236Z,12.20
2019-04-11T22:09:36.829Z,6.77
2019-04-11T22:12:08.252Z,9.73
2019-04-11T22:14:41.355Z,7.27
2019-04-11T22:17:09.601Z,8.10
2019-04-11T22:19:39.207Z,6.60
2019-04-11T22:22:08.777Z,8.40
2019-04-11T22:24:38.356Z,8.93
2019-04-11T22:27:07.951Z,11.10
2019-04-11T22:29:37.526Z,7.80
2019-04-11T22:32:07.154Z,8.47
2019-04-11T22:34:40.646Z,6.60
2019-04-11T22:37:10.198Z,5.97
2019-04-11T22:39:39.793Z,6.77
2019-04-11T22:42:09.458Z,6.23
2019-04-11T22:44:39.098Z,5.50
2019-04-11T22:47:08.724Z,7.67
2019-04-11T22:49:39.321Z,5.80
2019-04-11T22:52:11.413Z,6.00
2019-04-11T22:54:41.799Z,4.67
2019-04-11T22:57:12.142Z,5.27
2019-04-11T22:59:44.913Z,5.67
2019-04-11T23:02:30.064Z,5.57
2019-04-11T23:04:59.659Z,4.00
2019-04-11T23:07:29.218Z,4.93
2019-04-11T23:09:58.904Z,5.20
2019-04-11T23:12:28.439Z,4.00
2019-04-11T23:14:58.028Z,4.07
2019-04-11T23:17:27.584Z,7.60
2019-04-11T23:19:57.152Z,5.40
2019-04-11T23:22:26.713Z,3.73
2019-04-11T23:24:56.328Z,4.30
2019-04-11T23:27:25.901Z,4.03
2019-04-11T23:29:55.488Z,3.53
2019-04-11T23:32:25.104Z,3.67
2019-04-11T23:34:54.721Z,4.47
2019-04-11T23:37:24.273Z,4.23
2019-04-11T23:39:53.854Z,3.30
2019-04-11T23:42:23.426Z,4.10
2019-04-11T23:44:53.026Z,3.87
2019-04-11T23:47:23.030Z,3.80
2019-04-11T23:49:55.831Z,4.67
2019-04-11T23:52:26.689Z,5.47
2019-04-11T23:54:58.167Z,4.27
2019-04-11T23:57:28.936Z,3.00
2019-04-11T23:59:59.819Z,4.17
